sensor_id;sensor_type;location;lat;lon;timestamp;P1;durP1;ratioP1;P2;durP2;ratioP2
30299;SDS011;17110;52.602;12.998;2023-07-28T00:00:26;3.17;;;2.00;;
30299;SDS011;17110;52.602;12.998;2023-07-28T00:02:52;2.55;;;2.35;;
30299;SDS011;17110;52.602;12.998;2023-07-28T00:05:18;2.30;;;2.10;;
30299;SDS011;17110;52.602;12.998;2023-07-28T00:07:45;4.50;;;2.97;;
30299;SDS011;17110;52.602;12.998;2023-07-28T00:10:10;4.13;;;2.90;;
30299;SDS011;17110;52.602;12.998;2023-07-28T00:12:36;3.25;;;2.92;;
30299;SDS011;17110;52.602;12.998;2023-07-28T00:15:02;3.75;;;3.45;;
30299;SDS011;17110;52.602;12.998;2023-07-28T00:17:28;3.50;;;2.95;;
30299;SDS011;17110;52.602;12.998;2023-07-28T00:19:53;3.20;;;2.90;;
30299;SDS011;17110;52.602;12.998;2023-07-28T00:22:19;3.28;;;3.03;;
30299;SDS011;17110;52.602;12.998;2023-07-28T00:24:46;3.40;;;3.10;;
30299;SDS011;17110;52.602;12.998;2023-07-28T00:27:11;3.05;;;2.70;;
30299;SDS011;17110;52.602;12.998;2023-07-28T00:29:37;3.45;;;2.83;;
30299;SDS011;17110;52.602;12.998;2023-07-28T00:32:03;5.03;;;2.85;;
30299;SDS011;17110;52.602;12.998;2023-07-28T00:34:29;5.28;;;2.70;;
30299;SDS011;17110;52.602;12.998;2023-07-28T00:36:55;2.83;;;2.58;;
30299;SDS011;17110;52.602;12.998;2023-07-28T00:39:20;4.43;;;3.13;;
30299;SDS011;17110;52.602;12.998;2023-07-28T00:41:47;5.07;;;3.15;;
30299;SDS011;17110;52.602;12.998;2023-07-28T00:44:13;5.68;;;2.60;;
30299;SDS011;17110;52.602;12.998;2023-07-28T00:46:38;3.05;;;2.80;;
30299;SDS011;17110;52.602;12.998;2023-07-28T00:49:04;4.68;;;2.85;;
30299;SDS011;17110;52.602;12.998;2023-07-28T00:51:30;3.92;;;2.47;;
30299;SDS011;17110;52.602;12.998;2023-07-28T00:53:56;4.50;;;2.78;;
30299;SDS011;17110;52.602;12.998;2023-07-28T00:56:22;4.28;;;2.22;;
30299;SDS011;17110;52.602;12.998;2023-07-28T00:58:49;5.20;;;2.63;;
30299;SDS011;17110;52.602;12.998;2023-07-28T01:01:16;4.15;;;2.30;;
30299;SDS011;17110;52.602;12.998;2023-07-28T01:03:42;3.40;;;2.72;;
30299;SDS011;17110;52.602;12.998;2023-07-28T01:06:10;4.97;;;3.00;;
30299;SDS011;17110;52.602;12.998;2023-07-28T01:08:46;4.00;;;2.70;;
30299;SDS011;17110;52.602;12.998;2023-07-28T01:11:16;4.90;;;2.67;;
30299;SDS011;17110;52.602;12.998;2023-07-28T01:13:42;5.90;;;2.80;;
30299;SDS011;17110;52.602;12.998;2023-07-28T01:16:09;5.57;;;2.80;;
30299;SDS011;17110;52.602;12.998;2023-07-28T01:18:35;3.88;;;2.70;;
30299;SDS011;17110;52.602;12.998;2023-07-28T01:21:01;4.85;;;2.88;;
30299;SDS011;17110;52.602;12.998;2023-07-28T01:23:34;5.15;;;3.50;;
30299;SDS011;17110;52.602;12.998;2023-07-28T01:26:08;5.57;;;3.13;;
30299;SDS011;17110;52.602;12.998;2023-07-28T01:28:36;7.07;;;3.65;;
30299;SDS011;17110;52.602;12.998;2023-07-28T01:31:03;5.68;;;3.75;;
30299;SDS011;17110;52.602;12.998;2023-07-28T01:33:29;5.05;;;3.80;;
30299;SDS011;17110;52.602;12.998;2023-07-28T01:35:55;6.57;;;3.70;;
30299;SDS011;17110;52.602;12.998;2023-07-28T01:38:21;6.97;;;4.40;;
30299;SDS011;17110;52.602;12.998;2023-07-28T01:40:47;9.52;;;4.15;;
30299;SDS011;17110;52.602;12.998;2023-07-28T01:43:12;5.25;;;4.32;;
30299;SDS011;17110;52.602;12.998;2023-07-28T01:45:39;4.80;;;4.40;;
30299;SDS011;17110;52.602;12.998;2023-07-28T01:48:05;8.55;;;4.07;;
30299;SDS011;17110;52.602;12.998;2023-07-28T01:50:31;4.63;;;4.20;;
30299;SDS011;17110;52.602;12.998;2023-07-28T01:52:56;8.15;;;4.40;;
30299;SDS011;17110;52.602;12.998;2023-07-28T01:55:22;5.53;;;4.97;;
30299;SDS011;17110;52.602;12.998;2023-07-28T01:57:53;5.32;;;4.82;;
30299;SDS011;17110;52.602;12.998;2023-07-28T02:00:20;8.15;;;4.97;;
30299;SDS011;17110;52.602;12.998;2023-07-28T02:02:48;6.75;;;5.00;;
30299;SDS011;17110;52.602;12.998;2023-07-28T02:05:13;7.28;;;4.72;;
30299;SDS011;17110;52.602;12.998;2023-07-28T02:07:39;6.30;;;5.65;;
30299;SDS011;17110;52.602;12.998;2023-07-28T02:10:05;10.35;;;6.30;;
30299;SDS011;17110;52.602;12.998;2023-07-28T02:12:31;6.63;;;6.03;;
30299;SDS011;17110;52.602;12.998;2023-07-28T02:14:57;6.85;;;6.00;;
30299;SDS011;17110;52.602;12.998;2023-07-28T02:17:23;5.85;;;5.32;;
30299;SDS011;17110;52.602;12.998;2023-07-28T02:19:50;9.10;;;6.55;;
30299;SDS011;17110;52.602;12.998;2023-07-28T02:22:15;8.70;;;6.97;;
30299;SDS011;17110;52.602;12.998;2023-07-28T02:24:41;9.27;;;6.82;;
30299;SDS011;17110;52.602;12.998;2023-07-28T02:27:07;7.13;;;6.43;;
30299;SDS011;17110;52.602;12.998;2023-07-28T02:29:32;7.60;;;6.30;;
30299;SDS011;17110;52.602;12.998;2023-07-28T02:31:58;8.70;;;7.80;;
30299;SDS011;17110;52.602;12.998;2023-07-28T02:34:24;10.18;;;7.95;;
30299;SDS011;17110;52.602;12.998;2023-07-28T02:36:51;9.13;;;7.30;;
30299;SDS011;17110;52.602;12.998;2023-07-28T02:39:17;11.25;;;8.20;;
30299;SDS011;17110;52.602;12.998;2023-07-28T02:41:42;11.05;;;8.65;;
30299;SDS011;17110;52.602;12.998;2023-07-28T02:44:08;9.23;;;8.10;;
30299;SDS011;17110;52.602;12.998;2023-07-28T02:46:33;9.95;;;8.90;;
30299;SDS011;17110;52.602;12.998;2023-07-28T02:48:59;12.40;;;9.82;;
30299;SDS011;17110;52.602;12.998;2023-07-28T02:51:25;9.95;;;9.02;;
30299;SDS011;17110;52.602;12.998;2023-07-28T02:53:52;10.80;;;9.00;;
30299;SDS011;17110;52.602;12.998;2023-07-28T02:56:18;11.23;;;9.35;;
30299;SDS011;17110;52.602;12.998;2023-07-28T02:58:43;10.85;;;9.85;;
30299;SDS011;17110;52.602;12.998;2023-07-28T03:01:09;9.73;;;8.82;;
30299;SDS011;17110;52.602;12.998;2023-07-28T03:03:36;10.93;;;9.93;;
30299;SDS011;17110;52.602;12.998;2023-07-28T03:06:02;11.80;;;10.68;;
30299;SDS011;17110;52.602;12.998;2023-07-28T03:08:27;12.70;;;9.77;;
30299;SDS011;17110;52.602;12.998;2023-07-28T03:11:08;13.65;;;10.30;;
30299;SDS011;17110;52.602;12.998;2023-07-28T03:13:34;12.75;;;10.65;;
30299;SDS011;17110;52.602;12.998;2023-07-28T03:16:00;12.90;;;11.45;;
30299;SDS011;17110;52.602;12.998;2023-07-28T03:18:25;12.20;;;11.05;;
30299;SDS011;17110;52.602;12.998;2023-07-28T03:20:51;14.75;;;10.93;;
30299;SDS011;17110;52.602;12.998;2023-07-28T03:23:17;12.45;;;11.27;;
30299;SDS011;17110;52.602;12.998;2023-07-28T03:25:42;12.32;;;11.00;;
30299;SDS011;17110;52.602;12.998;2023-07-28T03:28:09;12.00;;;10.77;;
30299;SDS011;17110;52.602;12.998;2023-07-28T03:30:35;12.35;;;11.20;;
30299;SDS011;17110;52.602;12.998;2023-07-28T03:33:01;14.32;;;9.75;;
30299;SDS011;17110;52.602;12.998;2023-07-28T03:35:26;12.05;;;10.75;;
30299;SDS011;17110;52.602;12.998;2023-07-28T03:38:11;12.57;;;11.10;;
30299;SDS011;17110;52.602;12.998;2023-07-28T03:40:38;14.25;;;10.93;;
30299;SDS011;17110;52.602;12.998;2023-07-28T03:43:04;13.75;;;10.70;;
30299;SDS011;17110;52.602;12.998;2023-07-28T03:45:31;12.82;;;11.52;;
30299;SDS011;17110;52.602;12.998;2023-07-28T03:47:57;15.02;;;11.45;;
30299;SDS011;17110;52.602;12.998;2023-07-28T03:50:22;12.23;;;10.98;;
30299;SDS011;17110;52.602;12.998;2023-07-28T03:52:48;11.95;;;10.77;;
30299;SDS011;17110;52.602;12.998;2023-07-28T03:55:14;12.02;;;10.68;;
30299;SDS011;17110;52.602;12.998;2023-07-28T03:57:39;11.77;;;10.75;;
30299;SDS011;17110;52.602;12.998;2023-07-28T04:00:05;13.35;;;10.77;;
30299;SDS011;17110;52.602;12.998;2023-07-28T04:02:39;12.07;;;10.93;;
30299;SDS011;17110;52.602;12.998;2023-07-28T04:05:04;13.55;;;11.77;;
30299;SDS011;17110;52.602;12.998;2023-07-28T04:07:30;13.85;;;11.65;;
30299;SDS011;17110;52.602;12.998;2023-07-28T04:09:56;12.68;;;11.40;;
30299;SDS011;17110;52.602;12.998;2023-07-28T04:12:22;12.88;;;11.05;;
30299;SDS011;17110;52.602;12.998;2023-07-28T04:14:47;12.75;;;11.45;;
30299;SDS011;17110;52.602;12.998;2023-07-28T04:17:13;11.88;;;10.68;;
30299;SDS011;17110;52.602;12.998;2023-07-28T04:19:40;11.93;;;10.82;;
30299;SDS011;17110;52.602;12.998;2023-07-28T04:22:06;12.18;;;10.93;;
30299;SDS011;17110;52.602;12.998;2023-07-28T04:24:33;12.30;;;11.05;;
30299;SDS011;17110;52.602;12.998;2023-07-28T04:26:59;12.30;;;11.10;;
30299;SDS011;17110;52.602;12.998;2023-07-28T04:29:24;11.68;;;10.55;;
30299;SDS011;17110;52.602;12.998;2023-07-28T04:31:50;12.65;;;10.23;;
30299;SDS011;17110;52.602;12.998;2023-07-28T04:34:24;11.95;;;10.57;;
30299;SDS011;17110;52.602;12.998;2023-07-28T04:37:17;11.43;;;10.30;;
30299;SDS011;17110;52.602;12.998;2023-07-28T04:42:21;11.02;;;9.88;;
30299;SDS011;17110;52.602;12.998;2023-07-28T04:44:47;11.00;;;9.57;;
30299;SDS011;17110;52.602;12.998;2023-07-28T04:47:15;10.73;;;9.73;;
30299;SDS011;17110;52.602;12.998;2023-07-28T04:49:41;11.32;;;9.98;;
30299;SDS011;17110;52.602;12.998;2023-07-28T04:52:07;11.77;;;10.48;;
30299;SDS011;17110;52.602;12.998;2023-07-28T04:54:40;13.15;;;10.75;;
30299;SDS011;17110;52.602;12.998;2023-07-28T04:57:06;11.20;;;10.20;;
30299;SDS011;17110;52.602;12.998;2023-07-28T04:59:33;10.65;;;9.65;;
30299;SDS011;17110;52.602;12.998;2023-07-28T05:01:59;11.38;;;10.23;;
30299;SDS011;17110;52.602;12.998;2023-07-28T05:04:25;11.07;;;9.45;;
30299;SDS011;17110;52.602;12.998;2023-07-28T05:06:51;11.15;;;10.13;;
30299;SDS011;17110;52.602;12.998;2023-07-28T05:09:16;11.57;;;9.65;;
30299;SDS011;17110;52.602;12.998;2023-07-28T05:11:43;10.63;;;9.63;;
30299;SDS011;17110;52.602;12.998;2023-07-28T05:14:12;10.93;;;9.43;;
30299;SDS011;17110;52.602;12.998;2023-07-28T05:16:38;12.30;;;9.68;;
30299;SDS011;17110;52.602;12.998;2023-07-28T05:19:22;10.70;;;9.45;;
30299;SDS011;17110;52.602;12.998;2023-07-28T05:22:07;10.95;;;9.30;;
30299;SDS011;17110;52.602;12.998;2023-07-28T05:24:43;10.88;;;10.02;;
30299;SDS011;17110;52.602;12.998;2023-07-28T05:27:11;10.02;;;8.85;;
30299;SDS011;17110;52.602;12.998;2023-07-28T05:29:37;9.68;;;8.77;;
30299;SDS011;17110;52.602;12.998;2023-07-28T05:32:05;11.20;;;10.10;;
30299;SDS011;17110;52.602;12.998;2023-07-28T05:34:50;9.77;;;8.85;;
30299;SDS011;17110;52.602;12.998;2023-07-28T05:37:15;10.15;;;9.13;;
30299;SDS011;17110;52.602;12.998;2023-07-28T05:39:41;9.70;;;8.70;;
30299;SDS011;17110;52.602;12.998;2023-07-28T05:42:07;10.70;;;9.60;;
30299;SDS011;17110;52.602;12.998;2023-07-28T05:44:34;10.07;;;9.07;;
30299;SDS011;17110;52.602;12.998;2023-07-28T05:47:00;9.07;;;8.27;;
30299;SDS011;17110;52.602;12.998;2023-07-28T05:49:26;9.20;;;8.38;;
30299;SDS011;17110;52.602;12.998;2023-07-28T05:51:52;9.43;;;8.50;;
30299;SDS011;17110;52.602;12.998;2023-07-28T05:54:20;9.18;;;8.38;;
30299;SDS011;17110;52.602;12.998;2023-07-28T05:56:47;9.50;;;8.57;;
30299;SDS011;17110;52.602;12.998;2023-07-28T05:59:13;9.70;;;8.77;;
30299;SDS011;17110;52.602;12.998;2023-07-28T06:01:40;7.68;;;6.97;;
30299;SDS011;17110;52.602;12.998;2023-07-28T06:04:27;7.90;;;7.13;;
30299;SDS011;17110;52.602;12.998;2023-07-28T06:06:56;8.02;;;7.32;;
30299;SDS011;17110;52.602;12.998;2023-07-28T06:09:22;7.63;;;7.03;;
30299;SDS011;17110;52.602;12.998;2023-07-28T06:11:47;7.32;;;6.72;;
30299;SDS011;17110;52.602;12.998;2023-07-28T06:14:13;7.70;;;6.97;;
30299;SDS011;17110;52.602;12.998;2023-07-28T06:16:40;6.53;;;6.03;;
30299;SDS011;17110;52.602;12.998;2023-07-28T06:19:06;7.30;;;6.57;;
30299;SDS011;17110;52.602;12.998;2023-07-28T06:21:33;7.80;;;7.03;;
30299;SDS011;17110;52.602;12.998;2023-07-28T06:23:59;9.95;;;6.55;;
30299;SDS011;17110;52.602;12.998;2023-07-28T06:26:24;6.90;;;6.30;;
30299;SDS011;17110;52.602;12.998;2023-07-28T06:28:50;8.27;;;6.40;;
30299;SDS011;17110;52.602;12.998;2023-07-28T06:31:16;7.05;;;6.35;;
30299;SDS011;17110;52.602;12.998;2023-07-28T06:33:43;6.28;;;5.68;;
30299;SDS011;17110;52.602;12.998;2023-07-28T06:36:08;6.45;;;5.90;;
30299;SDS011;17110;52.602;12.998;2023-07-28T06:38:34;7.50;;;5.72;;
30299;SDS011;17110;52.602;12.998;2023-07-28T06:41:00;5.20;;;4.78;;
30299;SDS011;17110;52.602;12.998;2023-07-28T06:43:26;5.40;;;4.97;;
30299;SDS011;17110;52.602;12.998;2023-07-28T06:45:52;6.13;;;5.72;;
30299;SDS011;17110;52.602;12.998;2023-07-28T06:48:18;5.72;;;4.97;;
30299;SDS011;17110;52.602;12.998;2023-07-28T06:50:44;6.38;;;5.00;;
30299;SDS011;17110;52.602;12.998;2023-07-28T06:53:10;6.13;;;5.55;;
30299;SDS011;17110;52.602;12.998;2023-07-28T06:55:36;5.38;;;4.95;;
30299;SDS011;17110;52.602;12.998;2023-07-28T06:58:03;5.47;;;4.53;;
30299;SDS011;17110;52.602;12.998;2023-07-28T07:00:29;4.75;;;4.45;;
30299;SDS011;17110;52.602;12.998;2023-07-28T07:02:55;5.53;;;4.97;;
30299;SDS011;17110;52.602;12.998;2023-07-28T07:05:20;4.93;;;4.53;;
30299;SDS011;17110;52.602;12.998;2023-07-28T07:07:47;5.43;;;4.35;;
30299;SDS011;17110;52.602;12.998;2023-07-28T07:10:13;5.60;;;4.78;;
30299;SDS011;17110;52.602;12.998;2023-07-28T07:12:39;5.32;;;4.53;;
30299;SDS011;17110;52.602;12.998;2023-07-28T07:15:05;4.97;;;4.55;;
30299;SDS011;17110;52.602;12.998;2023-07-28T07:17:31;5.10;;;4.60;;
30299;SDS011;17110;52.602;12.998;2023-07-28T07:19:57;4.43;;;4.00;;
30299;SDS011;17110;52.602;12.998;2023-07-28T07:22:22;4.18;;;3.35;;
30299;SDS011;17110;52.602;12.998;2023-07-28T07:24:49;3.67;;;3.30;;
30299;SDS011;17110;52.602;12.998;2023-07-28T07:27:15;5.18;;;3.17;;
30299;SDS011;17110;52.602;12.998;2023-07-28T07:29:41;3.33;;;2.67;;
30299;SDS011;17110;52.602;12.998;2023-07-28T07:32:07;3.53;;;2.55;;
30299;SDS011;17110;52.602;12.998;2023-07-28T07:34:33;6.68;;;2.40;;
30299;SDS011;17110;52.602;12.998;2023-07-28T07:36:59;2.40;;;2.20;;
30299;SDS011;17110;52.602;12.998;2023-07-28T07:39:25;3.05;;;2.20;;
30299;SDS011;17110;52.602;12.998;2023-07-28T07:41:52;4.07;;;2.50;;
30299;SDS011;17110;52.602;12.998;2023-07-28T07:44:17;3.20;;;2.70;;
30299;SDS011;17110;52.602;12.998;2023-07-28T07:46:43;2.17;;;2.08;;
30299;SDS011;17110;52.602;12.998;2023-07-28T07:49:08;2.70;;;2.20;;
30299;SDS011;17110;52.602;12.998;2023-07-28T07:51:34;2.70;;;2.25;;
30299;SDS011;17110;52.602;12.998;2023-07-28T07:54:00;2.72;;;1.90;;
30299;SDS011;17110;52.602;12.998;2023-07-28T07:56:25;1.90;;;1.80;;
30299;SDS011;17110;52.602;12.998;2023-07-28T07:58:53;1.60;;;1.50;;
30299;SDS011;17110;52.602;12.998;2023-07-28T08:01:18;2.00;;;1.65;;
30299;SDS011;17110;52.602;12.998;2023-07-28T08:03:44;5.95;;;1.60;;
30299;SDS011;17110;52.602;12.998;2023-07-28T08:06:09;1.48;;;1.38;;
30299;SDS011;17110;52.602;12.998;2023-07-28T08:08:35;3.10;;;1.63;;
30299;SDS011;17110;52.602;12.998;2023-07-28T08:11:01;1.75;;;1.65;;
30299;SDS011;17110;52.602;12.998;2023-07-28T08:13:26;2.10;;;1.67;;
30299;SDS011;17110;52.602;12.998;2023-07-28T08:15:53;2.20;;;1.95;;
30299;SDS011;17110;52.602;12.998;2023-07-28T08:18:19;2.05;;;1.83;;
30299;SDS011;17110;52.602;12.998;2023-07-28T08:20:45;1.67;;;1.58;;
30299;SDS011;17110;52.602;12.998;2023-07-28T08:23:10;2.67;;;1.70;;
30299;SDS011;17110;52.602;12.998;2023-07-28T08:25:36;2.92;;;2.00;;
30299;SDS011;17110;52.602;12.998;2023-07-28T08:28:02;2.65;;;1.83;;
30299;SDS011;17110;52.602;12.998;2023-07-28T08:30:28;2.22;;;2.00;;
30299;SDS011;17110;52.602;12.998;2023-07-28T08:32:55;2.22;;;1.60;;
30299;SDS011;17110;52.602;12.998;2023-07-28T08:35:20;2.15;;;1.95;;
30299;SDS011;17110;52.602;12.998;2023-07-28T08:37:46;2.15;;;1.95;;
30299;SDS011;17110;52.602;12.998;2023-07-28T08:40:12;3.25;;;1.73;;
30299;SDS011;17110;52.602;12.998;2023-07-28T08:42:38;2.10;;;1.90;;
30299;SDS011;17110;52.602;12.998;2023-07-28T08:45:05;4.07;;;2.17;;
30299;SDS011;17110;52.602;12.998;2023-07-28T08:47:31;4.07;;;2.00;;
30299;SDS011;17110;52.602;12.998;2023-07-28T08:49:59;3.10;;;1.90;;
30299;SDS011;17110;52.602;12.998;2023-07-28T08:52:24;3.53;;;2.35;;
30299;SDS011;17110;52.602;12.998;2023-07-28T08:54:50;2.47;;;1.88;;
30299;SDS011;17110;52.602;12.998;2023-07-28T08:57:16;3.90;;;2.20;;
30299;SDS011;17110;52.602;12.998;2023-07-28T08:59:41;2.40;;;2.20;;
30299;SDS011;17110;52.602;12.998;2023-07-28T09:02:08;3.05;;;2.47;;
30299;SDS011;17110;52.602;12.998;2023-07-28T09:04:34;3.72;;;2.10;;
30299;SDS011;17110;52.602;12.998;2023-07-28T09:07:02;3.50;;;2.78;;
30299;SDS011;17110;52.602;12.998;2023-07-28T09:09:31;2.60;;;1.98;;
30299;SDS011;17110;52.602;12.998;2023-07-28T09:11:58;1.80;;;1.70;;
30299;SDS011;17110;52.602;12.998;2023-07-28T09:14:24;2.28;;;2.08;;
30299;SDS011;17110;52.602;12.998;2023-07-28T09:16:50;2.75;;;1.90;;
30299;SDS011;17110;52.602;12.998;2023-07-28T09:19:16;3.13;;;1.92;;
30299;SDS011;17110;52.602;12.998;2023-07-28T09:21:42;4.85;;;2.03;;
30299;SDS011;17110;52.602;12.998;2023-07-28T09:24:10;1.50;;;1.40;;
30299;SDS011;17110;52.602;12.998;2023-07-28T09:26:37;4.03;;;1.70;;
30299;SDS011;17110;52.602;12.998;2023-07-28T09:29:10;3.17;;;1.48;;
30299;SDS011;17110;52.602;12.998;2023-07-28T09:31:37;1.83;;;1.48;;
30299;SDS011;17110;52.602;12.998;2023-07-28T09:34:02;2.63;;;1.45;;
30299;SDS011;17110;52.602;12.998;2023-07-28T09:36:28;2.10;;;1.25;;
30299;SDS011;17110;52.602;12.998;2023-07-28T09:38:54;1.30;;;1.20;;
30299;SDS011;17110;52.602;12.998;2023-07-28T09:41:22;2.08;;;1.55;;
30299;SDS011;17110;52.602;12.998;2023-07-28T09:43:49;2.75;;;1.23;;
30299;SDS011;17110;52.602;12.998;2023-07-28T09:46:15;1.52;;;1.40;;
30299;SDS011;17110;52.602;12.998;2023-07-28T09:48:45;2.70;;;1.48;;
30299;SDS011;17110;52.602;12.998;2023-07-28T09:51:14;6.03;;;1.40;;
30299;SDS011;17110;52.602;12.998;2023-07-28T09:56:11;2.28;;;1.40;;
30299;SDS011;17110;52.602;12.998;2023-07-28T09:58:41;1.70;;;1.10;;
30299;SDS011;17110;52.602;12.998;2023-07-28T10:01:14;5.35;;;1.70;;
30299;SDS011;17110;52.602;12.998;2023-07-28T10:03:40;2.00;;;1.17;;
30299;SDS011;17110;52.602;12.998;2023-07-28T10:06:06;1.50;;;1.40;;
30299;SDS011;17110;52.602;12.998;2023-07-28T10:08:32;2.38;;;1.60;;
30299;SDS011;17110;52.602;12.998;2023-07-28T10:10:58;3.33;;;1.83;;
30299;SDS011;17110;52.602;12.998;2023-07-28T10:13:24;3.80;;;2.20;;
30299;SDS011;17110;52.602;12.998;2023-07-28T10:15:51;2.80;;;1.80;;
30299;SDS011;17110;52.602;12.998;2023-07-28T10:18:19;4.32;;;2.08;;
30299;SDS011;17110;52.602;12.998;2023-07-28T10:20:45;2.75;;;1.55;;
30299;SDS011;17110;52.602;12.998;2023-07-28T10:23:11;1.35;;;0.98;;
30299;SDS011;17110;52.602;12.998;2023-07-28T10:25:38;2.65;;;1.00;;
30299;SDS011;17110;52.602;12.998;2023-07-28T10:28:05;1.00;;;1.00;;
30299;SDS011;17110;52.602;12.998;2023-07-28T10:30:36;3.38;;;1.67;;
30299;SDS011;17110;52.602;12.998;2023-07-28T10:33:04;1.25;;;1.10;;
30299;SDS011;17110;52.602;12.998;2023-07-28T10:35:30;3.42;;;1.65;;
30299;SDS011;17110;52.602;12.998;2023-07-28T10:37:56;1.90;;;1.58;;
30299;SDS011;17110;52.602;12.998;2023-07-28T10:40:41;4.63;;;1.67;;
30299;SDS011;17110;52.602;12.998;2023-07-28T10:43:07;2.80;;;1.80;;
30299;SDS011;17110;52.602;12.998;2023-07-28T10:45:33;2.67;;;1.63;;
30299;SDS011;17110;52.602;12.998;2023-07-28T10:47:58;1.80;;;1.60;;
30299;SDS011;17110;52.602;12.998;2023-07-28T10:50:29;2.55;;;1.90;;
30299;SDS011;17110;52.602;12.998;2023-07-28T10:52:56;4.20;;;1.50;;
30299;SDS011;17110;52.602;12.998;2023-07-28T10:55:23;3.20;;;1.90;;
30299;SDS011;17110;52.602;12.998;2023-07-28T10:57:50;1.77;;;1.67;;
30299;SDS011;17110;52.602;12.998;2023-07-28T11:00:18;1.80;;;1.70;;
30299;SDS011;17110;52.602;12.998;2023-07-28T11:02:46;1.45;;;1.35;;
30299;SDS011;17110;52.602;12.998;2023-07-28T11:05:13;3.13;;;1.45;;
30299;SDS011;17110;52.602;12.998;2023-07-28T11:07:46;2.45;;;1.50;;
30299;SDS011;17110;52.602;12.998;2023-07-28T11:10:12;3.10;;;1.90;;
30299;SDS011;17110;52.602;12.998;2023-07-28T11:12:39;3.13;;;2.10;;
30299;SDS011;17110;52.602;12.998;2023-07-28T11:15:06;1.90;;;1.70;;
30299;SDS011;17110;52.602;12.998;2023-07-28T11:17:33;2.05;;;1.60;;
30299;SDS011;17110;52.602;12.998;2023-07-28T11:19:59;1.63;;;1.52;;
30299;SDS011;17110;52.602;12.998;2023-07-28T11:22:25;1.75;;;1.60;;
30299;SDS011;17110;52.602;12.998;2023-07-28T11:24:52;1.70;;;1.60;;
30299;SDS011;17110;52.602;12.998;2023-07-28T11:27:18;2.58;;;1.23;;
30299;SDS011;17110;52.602;12.998;2023-07-28T11:29:44;1.55;;;1.38;;
30299;SDS011;17110;52.602;12.998;2023-07-28T11:32:09;1.70;;;1.60;;
30299;SDS011;17110;52.602;12.998;2023-07-28T11:34:35;1.65;;;1.55;;
30299;SDS011;17110;52.602;12.998;2023-07-28T11:37:01;1.52;;;1.42;;
30299;SDS011;17110;52.602;12.998;2023-07-28T11:39:27;2.10;;;1.58;;
30299;SDS011;17110;52.602;12.998;2023-07-28T11:41:54;1.58;;;1.48;;
30299;SDS011;17110;52.602;12.998;2023-07-28T11:44:20;2.67;;;1.70;;
30299;SDS011;17110;52.602;12.998;2023-07-28T11:46:46;1.50;;;1.40;;
30299;SDS011;17110;52.602;12.998;2023-07-28T11:49:13;2.55;;;1.70;;
30299;SDS011;17110;52.602;12.998;2023-07-28T11:51:39;2.90;;;1.60;;
30299;SDS011;17110;52.602;12.998;2023-07-28T11:54:06;2.22;;;2.00;;
30299;SDS011;17110;52.602;12.998;2023-07-28T11:56:32;1.90;;;1.80;;
30299;SDS011;17110;52.602;12.998;2023-07-28T11:59:00;2.25;;;2.05;;
30299;SDS011;17110;52.602;12.998;2023-07-28T12:01:29;1.90;;;1.80;;
30299;SDS011;17110;52.602;12.998;2023-07-28T12:03:54;1.83;;;1.73;;
30299;SDS011;17110;52.602;12.998;2023-07-28T12:06:20;1.83;;;1.65;;
30299;SDS011;17110;52.602;12.998;2023-07-28T12:08:46;2.38;;;1.60;;
30299;SDS011;17110;52.602;12.998;2023-07-28T12:11:12;4.07;;;2.00;;
30299;SDS011;17110;52.602;12.998;2023-07-28T12:13:46;1.80;;;1.70;;
30299;SDS011;17110;52.602;12.998;2023-07-28T12:18:59;4.28;;;2.10;;
30299;SDS011;17110;52.602;12.998;2023-07-28T12:21:25;3.42;;;2.10;;
30299;SDS011;17110;52.602;12.998;2023-07-28T12:23:50;3.35;;;2.35;;
30299;SDS011;17110;52.602;12.998;2023-07-28T12:26:16;2.88;;;2.13;;
30299;SDS011;17110;52.602;12.998;2023-07-28T12:28:42;2.05;;;1.90;;
30299;SDS011;17110;52.602;12.998;2023-07-28T12:31:07;3.58;;;1.92;;
30299;SDS011;17110;52.602;12.998;2023-07-28T12:33:34;3.40;;;2.00;;
30299;SDS011;17110;52.602;12.998;2023-07-28T12:36:00;5.05;;;2.10;;
30299;SDS011;17110;52.602;12.998;2023-07-28T12:38:26;3.50;;;1.83;;
30299;SDS011;17110;52.602;12.998;2023-07-28T12:40:51;3.30;;;2.17;;
30299;SDS011;17110;52.602;12.998;2023-07-28T12:43:17;2.05;;;1.67;;
30299;SDS011;17110;52.602;12.998;2023-07-28T12:45:43;1.70;;;1.60;;
30299;SDS011;17110;52.602;12.998;2023-07-28T12:48:08;2.80;;;1.65;;
30299;SDS011;17110;52.602;12.998;2023-07-28T12:50:35;3.08;;;1.70;;
30299;SDS011;17110;52.602;12.998;2023-07-28T12:53:01;2.38;;;1.77;;
30299;SDS011;17110;52.602;12.998;2023-07-28T12:55:26;4.93;;;1.92;;
30299;SDS011;17110;52.602;12.998;2023-07-28T12:57:52;1.40;;;1.30;;
30299;SDS011;17110;52.602;12.998;2023-07-28T13:00:18;2.83;;;1.70;;
30299;SDS011;17110;52.602;12.998;2023-07-28T13:02:43;2.00;;;1.80;;
30299;SDS011;17110;52.602;12.998;2023-07-28T13:05:10;1.88;;;1.70;;
30299;SDS011;17110;52.602;12.998;2023-07-28T13:07:39;2.13;;;1.65;;
30299;SDS011;17110;52.602;12.998;2023-07-28T13:10:05;1.73;;;1.63;;
30299;SDS011;17110;52.602;12.998;2023-07-28T13:12:33;1.88;;;1.67;;
30299;SDS011;17110;52.602;12.998;2023-07-28T13:14:58;2.28;;;1.80;;
30299;SDS011;17110;52.602;12.998;2023-07-28T13:17:24;1.63;;;1.52;;
30299;SDS011;17110;52.602;12.998;2023-07-28T13:19:49;2.75;;;1.70;;
30299;SDS011;17110;52.602;12.998;2023-07-28T13:22:15;2.70;;;1.45;;
30299;SDS011;17110;52.602;12.998;2023-07-28T13:24:43;1.35;;;1.25;;
30299;SDS011;17110;52.602;12.998;2023-07-28T13:27:08;1.50;;;1.40;;
30299;SDS011;17110;52.602;12.998;2023-07-28T13:29:34;1.70;;;1.60;;
30299;SDS011;17110;52.602;12.998;2023-07-28T13:32:00;1.85;;;1.50;;
30299;SDS011;17110;52.602;12.998;2023-07-28T13:34:26;4.10;;;1.52;;
30299;SDS011;17110;52.602;12.998;2023-07-28T13:36:51;8.38;;;1.50;;
30299;SDS011;17110;52.602;12.998;2023-07-28T13:39:17;1.42;;;1.33;;
30299;SDS011;17110;52.602;12.998;2023-07-28T13:41:44;3.70;;;1.58;;
30299;SDS011;17110;52.602;12.998;2023-07-28T13:44:10;1.60;;;1.50;;
30299;SDS011;17110;52.602;12.998;2023-07-28T13:46:35;2.75;;;1.65;;
30299;SDS011;17110;52.602;12.998;2023-07-28T13:49:02;1.40;;;1.30;;
30299;SDS011;17110;52.602;12.998;2023-07-28T13:51:28;1.50;;;1.33;;
30299;SDS011;17110;52.602;12.998;2023-07-28T13:53:54;3.53;;;1.50;;
30299;SDS011;17110;52.602;12.998;2023-07-28T13:56:19;2.25;;;1.63;;
30299;SDS011;17110;52.602;12.998;2023-07-28T13:58:46;1.70;;;1.60;;
30299;SDS011;17110;52.602;12.998;2023-07-28T14:01:12;1.63;;;1.52;;
30299;SDS011;17110;52.602;12.998;2023-07-28T14:03:38;2.22;;;1.60;;
30299;SDS011;17110;52.602;12.998;2023-07-28T14:06:03;2.38;;;1.50;;
30299;SDS011;17110;52.602;12.998;2023-07-28T14:08:29;1.35;;;1.25;;
30299;SDS011;17110;52.602;12.998;2023-07-28T14:10:55;1.40;;;1.30;;
30299;SDS011;17110;52.602;12.998;2023-07-28T14:13:21;1.60;;;1.50;;
30299;SDS011;17110;52.602;12.998;2023-07-28T14:15:48;2.15;;;1.50;;
30299;SDS011;17110;52.602;12.998;2023-07-28T14:18:14;2.67;;;1.70;;
30299;SDS011;17110;52.602;12.998;2023-07-28T14:20:40;1.88;;;1.60;;
30299;SDS011;17110;52.602;12.998;2023-07-28T14:23:19;1.55;;;1.42;;
30299;SDS011;17110;52.602;12.998;2023-07-28T14:28:11;3.20;;;1.52;;
30299;SDS011;17110;52.602;12.998;2023-07-28T14:30:37;5.20;;;1.77;;
30299;SDS011;17110;52.602;12.998;2023-07-28T14:33:04;1.50;;;1.40;;
30299;SDS011;17110;52.602;12.998;2023-07-28T14:35:30;4.35;;;1.80;;
30299;SDS011;17110;52.602;12.998;2023-07-28T14:37:55;2.75;;;1.70;;